ADDS METAR Data INFO
IDs: Format: Raw Decoded Include TAF

Data at: 2027 UTC 20 Jul 2018

KTNU 202015Z AUTO 31010G19KT 10SM SCT024 OVC032 23/18 A2987 RMK AO2
KTNU 201955Z AUTO 32014G20KT 10SM BKN024 BKN029 23/19 A2987 RMK AO2
KTNU 201935Z AUTO 32010G16KT 10SM SCT023 BKN028 24/19 A2986 RMK AO2
KTNU 201915Z AUTO 32013KT 10SM SCT022 BKN027 OVC050 23/19 A2987 RMK AO2
KTNU 201855Z AUTO 32011G18KT 10SM SCT022 BKN026 OVC050 23/19 A2987 RMK AO2
KTNU 201835Z AUTO 32015KT 10SM OVC023 22/18 A2987 RMK AO2
KTNU 201815Z AUTO 32013G22KT 10SM BKN024 OVC028 22/18 A2986 RMK AO2
KTNU 201755Z AUTO 33016G23KT 10SM BKN022 BKN027 OVC034 23/18 A2985 RMK AO2
KTNU 201735Z AUTO 31011G19KT 10SM BKN022 OVC027 22/18 A2985 RMK AO2
KTNU 201715Z AUTO 32014G27KT 10SM OVC023 22/18 A2985 RMK AO2
KTNU 201655Z AUTO 33016G23KT 10SM SCT019 OVC024 22/18 A2985 RMK AO2
KTNU 201635Z AUTO 32013G18KT BKN020 BKN025 OVC044 22/18 A2985 RMK AO2
KTNU 201615Z AUTO 31012G20KT 10SM BKN020 BKN025 OVC038 22/18 A2984 RMK AO2
KTNU 201555Z AUTO 32011G23KT 10SM SCT020 OVC034 21/17 A2984 RMK AO2
KTNU 201535Z AUTO 29012G24KT 10SM FEW016 SCT025 OVC032 22/18 A2984 RMK AO2
KTNU 201515Z AUTO 30015KT 10SM BKN017 OVC024 20/17 A2984 RMK AO2
KTNU 201455Z AUTO 31012G18KT 10SM OVC020 21/17 A2983 RMK AO2
KTNU 201435Z AUTO 31012G19KT 10SM BKN018 OVC023 20/17 A2983 RMK AO2
KTNU 201415Z AUTO 32015G23KT 10SM BKN018 OVC022 20/17 A2982 RMK AO2
KTNU 201355Z AUTO 31011G17KT 10SM OVC021 20/17 A2982 RMK AO2
KTNU 201335Z AUTO 31010G19KT 10SM OVC019 20/17 A2982 RMK AO2
KTNU 201315Z AUTO 32014G19KT 10SM OVC018 20/17 A2980 RMK AO2
KTNU 201255Z AUTO 31012G21KT 280V340 10SM OVC017 20/18 A2979 RMK AO2
KTNU 201235Z AUTO 30007KT 10SM OVC019 20/18 A2978 RMK AO2
KTNU 201215Z AUTO 30012KT 10SM OVC019 20/18 A2977 RMK AO2
KTNU 201155Z AUTO 29013KT 10SM OVC020 20/18 A2977 RMK AO2
KTNU 201135Z AUTO 29011G17KT 10SM OVC022 20/17 A2976 RMK AO2
KTNU 201115Z AUTO 29013G18KT 10SM OVC020 20/17 A2975 RMK AO2
KTNU 201055Z AUTO 29015G20KT 10SM OVC019 20/17 A2975 RMK AO2
KTNU 201035Z AUTO 29013KT 10SM OVC020 20/17 A2974 RMK AO2
KTNU 201015Z AUTO 29013G22KT 10SM OVC020 20/17 A2973 RMK AO2
KTNU 200955Z AUTO 28015G25KT 10SM OVC021 20/17 A2972 RMK AO2
KTNU 200935Z AUTO 27014G25KT 10SM OVC023 20/17 A2971 RMK AO2
KTNU 200915Z AUTO 27016G24KT 10SM OVC024 20/17 A2970 RMK AO2
KTNU 200855Z AUTO 27015G20KT 10SM BKN025 OVC035 20/17 A2970 RMK AO2
KTNU 200835Z AUTO 27014KT 10SM BKN026 BKN031 BKN037 20/17 A2971 RMK AO2
KTNU 200815Z AUTO 27011G19KT 10SM FEW026 BKN038 20/17 A2971 RMK AO2
KTNU 200755Z AUTO 26011KT 10SM BKN038 20/17 A2971 RMK AO2
KTNU 200735Z AUTO 27014KT 10SM SCT034 21/17 A2971 RMK AO2
KTNU 200715Z AUTO 27011G16KT 10SM BKN033 20/17 A2971 RMK AO2
KTNU 200655Z AUTO 26009G14KT 10SM OVC032 21/17 A2971 RMK AO2
KTNU 200635Z AUTO 26008G14KT 10SM SCT035 21/17 A2972 RMK AO2
KTNU 200615Z AUTO 27011G20KT 10SM FEW033 22/17 A2972 RMK AO2
KTNU 200555Z AUTO 28015G22KT 10SM CLR 22/17 A2971 RMK AO2
KTNU 200535Z AUTO 27012G18KT 10SM CLR 22/17 A2971 RMK AO2
KTNU 200515Z AUTO 27010G17KT 10SM CLR 22/17 A2971 RMK AO2
KTNU 200455Z AUTO 28011KT 10SM CLR 23/17 A2971 RMK AO2
KTNU 200435Z AUTO 28010G20KT 10SM CLR 23/17 A2971 RMK AO2
KTNU 200415Z AUTO 28010KT 10SM CLR 23/18 A2971 RMK AO2
KTNU 200355Z AUTO 28009G17KT 10SM FEW045 SCT050 SCT060 24/19 A2971 RMK AO2
KTNU 200335Z AUTO 25012G19KT 10SM FEW050 SCT060 BKN075 24/19 A2970 RMK AO2
KTNU 200315Z AUTO 23013KT 10SM FEW055 23/19 A2970 RMK AO2
KTNU 200255Z AUTO 22009KT 10SM FEW060 23/19 A2970 RMK AO2
KTNU 200235Z AUTO 22008KT 10SM SCT070 23/19 A2970 RMK AO2
KTNU 200215Z AUTO 22009KT 10SM SCT070 22/19 A2970 RMK AO2
KTNU 200155Z AUTO 23006KT 10SM CLR 22/19 A2971 RMK AO2
KTNU 200135Z AUTO 24006KT 10SM CLR 24/20 A2971 RMK AO2
KTNU 200115Z AUTO 25008KT 10SM CLR 24/20 A2971 RMK AO2
KTNU 200055Z AUTO 24007KT 10SM CLR 25/20 A2970 RMK AO2
KTNU 200035Z AUTO 25005KT 10SM CLR 26/21 A2971 RMK AO2
KTNU 200015Z AUTO 26005KT 10SM CLR 26/21 A2972 RMK AO2
KTNU 192355Z AUTO 28007KT 10SM CLR 27/20 A2972 RMK AO2
KTNU 192335Z AUTO 29009KT 10SM CLR 27/20 A2972 RMK AO2
KTNU 192315Z AUTO 29010G15KT 10SM CLR 26/21 A2972 RMK AO2
KTNU 192255Z AUTO 20004KT 10SM FEW043 SCT055 SCT070 25/21 A2973 RMK AO2
KTNU 192235Z AUTO 15004KT 10SM SCT055 SCT065 24/21 A2974 RMK AO2
KTNU 192215Z AUTO 14004KT 10SM CLR 25/21 A2974 RMK AO2
KTNU 192155Z AUTO 16004KT 10SM FEW044 FEW050 25/21 A2973 RMK AO2
KTNU 192135Z AUTO 13005KT 10SM SCT043 SCT050 BKN065 23/20 A2973 RMK AO2
KTNU 192115Z AUTO 17007G13KT 9SM FEW003 SCT050 BKN065 22/19 A2975 RMK AO2
KTNU 192055Z AUTO 15019G26KT 1/4SM -RA BKN003 OVC023 20/18 A2976 RMK AO2
KTNU 192035Z AUTO VRB07KT 220V320 1/2SM RA BKN002 BKN022 OVC038 25/24 A2975 RMK AO2
KTNU 192015Z AUTO 17006G13KT 9SM FEW019 FEW048 SCT080 26/23 A2973 RMK AO2
KTNU 191955Z AUTO 15010KT 10SM BKN018 BKN047 26/23 A2974 RMK AO2
KTNU 191935Z AUTO 14009KT 10SM SCT018 BKN048 BKN055 26/23 A2975 RMK AO2
KTNU 191915Z AUTO 14013KT 10SM CLR 26/22 A2976 RMK AO2
KTNU 191855Z AUTO 15012KT 10SM CLR 25/21 A2977 RMK AO2
KTNU 191835Z AUTO 14010G16KT 10SM SCT049 24/20 A2979 RMK AO2
KTNU 191815Z AUTO 14012KT 10SM SCT023 SCT028 BKN047 22/19 A2980 RMK AO2
KTNU 191755Z AUTO 15011KT 10SM FEW015 OVC023 22/19 A2982 RMK AO2
KTNU 191735Z AUTO 14009G16KT 10SM SCT014 OVC020 21/18 A2982 RMK AO2
KTNU 191715Z AUTO 13010KT 10SM BKN016 OVC020 21/18 A2983 RMK AO2
KTNU 191655Z AUTO 12010G16KT 10SM FEW015 OVC020 21/18 A2983 RMK AO2
KTNU 191635Z AUTO 12013G19KT 10SM OVC021 21/18 A2983 RMK AO2
KTNU 191615Z AUTO 12012G19KT 10SM FEW014 OVC020 20/17 A2984 RMK AO2
KTNU 191555Z AUTO 12013KT 10SM OVC019 20/17 A2985 RMK AO2
KTNU 191535Z AUTO 11013KT 10SM BKN017 OVC021 19/17 A2986 RMK AO2
KTNU 191515Z AUTO 12013KT 10SM OVC018 19/17 A2987 RMK AO2
KTNU 191455Z AUTO 12012G17KT 10SM OVC020 19/17 A2988 RMK AO2
KTNU 191435Z AUTO 11014KT 10SM OVC020 19/17 A2988 RMK AO2
KTNU 191415Z AUTO 11013KT 10SM OVC020 18/17 A2989 RMK AO2
KTNU 191355Z AUTO 11011G19KT 10SM OVC021 18/17 A2989 RMK AO2
KTNU 191335Z AUTO 12012G17KT 10SM OVC022 18/17 A2989 RMK AO2
KTNU 191315Z AUTO 12010G19KT 10SM OVC022 18/17 A2989 RMK AO2
KTNU 191255Z AUTO 12011G16KT 10SM OVC024 18/17 A2989 RMK AO2
KTNU 191235Z AUTO 11011G16KT 10SM OVC025 19/18 A2990 RMK AO2
KTNU 191215Z AUTO 11012KT 10SM OVC026 19/18 A2990 RMK AO2
KTNU 191155Z AUTO 11011KT 10SM FEW008 OVC027 19/18 A2991 RMK AO2
KTNU 191135Z AUTO 11010KT 10SM FEW008 SCT023 BKN028 19/18 A2991 RMK AO2
KTNU 191115Z AUTO 11009KT 10SM SCT009 BKN013 OVC034 19/18 A2991 RMK AO2
KTNU 191055Z AUTO 12012G19KT 10SM BKN011 BKN017 OVC029 19/18 A2992 RMK AO2
KTNU 191035Z AUTO 12011G16KT 10SM FEW011 OVC030 19/18 A2991 RMK AO2
KTNU 191015Z AUTO 12014G19KT 10SM BKN031 OVC040 20/18 A2992 RMK AO2
KTNU 190955Z AUTO 12012G19KT 10SM BKN033 OVC042 20/18 A2992 RMK AO2
KTNU 190935Z AUTO 12013G18KT 10SM BKN034 OVC041 20/19 A2992 RMK AO2
KTNU 190915Z AUTO 12013G21KT 10SM OVC042 20/19 A2992 RMK AO2
KTNU 190855Z AUTO 12011G16KT 9SM BKN042 OVC049 20/19 A2993 RMK AO2
KTNU 190835Z AUTO 12014KT 7SM FEW008 OVC042 20/19 A2993 RMK AO2